Flight Track Log - Related Links

Times and Time Zones

All times are in EDT time to prevent confusion due to time zone crossing. See the SKW7367 flight status page for this flight to view local times or setup timezone preferences in your user account.

Time Position Orientation Groundspeed Altitude Reporting Facility
EDT Latitude Longitude Course Direction KTS MPH feet Rate Location/Type
Tue 04:18:28 PM 42.2081 -83.3675 North 156 180 1,200  Level Cleveland Center
Tue 04:19:05 PM 42.1869 -83.3983 227° Southwest 203 234 2,600 2,755 Climbing Cleveland Center
Tue 04:20:06 PM 42.1394 -83.4675 227° Southwest 264 304 5,700 2,958 Climbing Cleveland Center
Tue 04:20:16 PM 42.1319 -83.4756 219° Southwest 261 300 6,100 3,045 Climbing Cleveland Center
Tue 04:21:00 PM 42.5272 -83.3752 North  Level Estimated
Tue 04:21:13 PM 42.1356 -83.5683 273° West 303 349 9,100  Level Cleveland Center
Tue 04:21:18 PM 42.1361 -83.5711 285° West 292 336 9,200 885 Climbing Cleveland Center
Tue 04:22:00 PM 42.6321 -83.3825 North  Level Estimated
Tue 04:22:14 PM 42.2033 -83.6403 323° Northwest 320 368 10,000  Level Cleveland Center
Tue 04:22:20 PM 42.2056 -83.6422 327° Northwest 312 359 10,000 1,588 Level Cleveland Center
Tue 04:23:00 PM 42.7370 -83.3898 North  Level Estimated
Tue 04:23:22 PM 42.2914 -83.6622 350° North 319 367 11,800  Level Cleveland Center
Tue 04:24:24 PM 42.3814 -83.6164 21° North 338 389 13,300 1,065 Climbing Cleveland Center
Tue 04:25:26 PM 42.4711 -83.5744 19° North 338 389 14,000 339 Climbing Cleveland Center
Tue 04:26:28 PM 42.5533 -83.5347 20° North 316 364 14,000  Level Cleveland Center
Tue 04:27:30 PM 42.6444 -83.4933 18° North 292 336 14,000  Level Cleveland Center
Tue 04:28:33 PM 42.7233 -83.4553 20° North 297 342 14,000  Level Cleveland Center
Tue 04:29:35 PM 42.8025 -83.4169 20° North 302 348 14,000  Level Cleveland Center
Tue 04:30:37 PM 42.8797 -83.3797 19° North 296 341 14,000  Level Cleveland Center
Tue 04:31:39 PM 42.9592 -83.3653 North 289 333 14,000  Level Cleveland Center
Tue 04:32:41 PM 43.0414 -83.3678 359° North 293 337 14,000  Level Cleveland Center
Tue 04:33:43 PM 43.1194 -83.4361 327° Northwest 293 337 14,000  Level Cleveland Center
Tue 04:34:45 PM 43.1744 -83.5203 312° West 296 341 14,000  Level Cleveland Center
Tue 04:35:47 PM 43.2294 -83.6044 312° West 297 342 14,000  Level Cleveland Center
Tue 04:36:49 PM 43.2836 -83.6872 312° West 293 337 14,000  Level Cleveland Center
Tue 04:37:51 PM 43.3381 -83.7725 311° West 297 342 14,000  Level Cleveland Center
Tue 04:38:46 PM 43.3958 -83.8636 311° West 300 345 14,000  Level Minneapolis Center
Tue 04:39:49 PM 43.4500 -83.9506 311° West 300 345 14,000  Level Minneapolis Center
Tue 04:40:51 PM 43.5047 -84.0372 311° West 300 345 14,000  Level Minneapolis Center
Tue 04:41:53 PM 43.5822 -84.0592 348° North 305 351 14,000  Level Minneapolis Center
Tue 04:42:55 PM 43.6622 -84.0336 13° North 298 343 14,000  Level Minneapolis Center
Tue 04:43:57 PM 43.7583 -84.0025 13° North 297 342 14,000  Level Minneapolis Center
Tue 04:44:59 PM 43.8389 -83.9758 13° North 296 341 14,000  Level Minneapolis Center
Tue 04:46:01 PM 43.9192 -83.9497 13° North 298 343 14,000  Level Minneapolis Center
Tue 04:47:03 PM 44.0042 -83.9217 13° North 297 342 14,000  Level Minneapolis Center
Tue 04:48:05 PM 44.0906 -83.8944 13° North 297 342 14,000  Level Minneapolis Center
Tue 04:49:07 PM 44.1689 -83.8672 14° North 294 338 14,000  Level Minneapolis Center
Tue 04:50:09 PM 44.2547 -83.8389 13° North 296 341 14,000  Level Minneapolis Center
Tue 04:51:11 PM 44.3394 -83.8103 14° North 294 338 14,000 -480 Level Minneapolis Center
Tue 04:52:14 PM 44.4150 -83.7847 14° North 285 328 13,000 -960 Descending Minneapolis Center
Tue 04:53:16 PM 44.4908 -83.7589 14° North 266 306 12,000 -968 Descending Minneapolis Center
Tue 04:54:18 PM 44.5567 -83.7369 13° North 250 288 11,000 -1,113 Descending Minneapolis Center
Tue 04:55:20 PM 44.6247 -83.7108 15° North 241 277 9,700 -1,210 Descending Minneapolis Center
Tue 04:56:22 PM 44.6881 -83.6842 17° North 239 275 8,500 -1,210 Descending Minneapolis Center
Tue 04:57:24 PM 44.7561 -83.6564 16° North 238 274 7,200 -1,210 Descending Minneapolis Center
Tue 04:58:26 PM 44.8183 -83.6306 16° North 236 272 6,000 -1,190 Descending Minneapolis Center
Tue 04:59:30 PM 44.8831 -83.6033 17° North 231 266 4,700 -1,286 Descending Minneapolis Center
Tue 05:00:32 PM 44.9456 -83.5769 17° North 222 255 3,300 -1,161 Descending Minneapolis Center
Tue 05:01:34 PM 45.0000 -83.5608 12° North 205 236 2,300 -1,065 Descending Minneapolis Center
Tue 05:02:36 PM 45.0442 -83.5608 360° North 154 177 1,100 -774 Descending Minneapolis Center
Tue 05:03:38 PM 45.0811 -83.5608 360° North 136 157 700 -387 Descending Minneapolis Center

Login

Don't have an account? Register now (free) for customized features, flight alerts, and more!